createdAt,value
2018-06-06T00:02:06.461Z,91.40
2018-06-06T00:04:34.824Z,91.60
2018-06-06T00:07:03.217Z,91.60
2018-06-06T00:09:31.557Z,91.60
2018-06-06T00:11:59.894Z,91.60
2018-06-06T00:14:28.238Z,91.70
2018-06-06T00:16:56.581Z,91.60
2018-06-06T00:19:24.930Z,91.80
2018-06-06T00:21:53.340Z,91.80
2018-06-06T00:24:21.685Z,91.80
2018-06-06T00:26:50.027Z,91.70
2018-06-06T00:29:18.373Z,91.60
2018-06-06T00:31:46.718Z,91.50
2018-06-06T00:34:15.061Z,91.40
2018-06-06T00:36:43.386Z,91.50
2018-06-06T00:39:11.729Z,91.50
2018-06-06T00:41:40.049Z,91.60
2018-06-06T00:44:08.413Z,91.70
2018-06-06T00:46:36.725Z,91.40
2018-06-06T00:49:05.052Z,91.40
2018-06-06T00:51:33.385Z,91.50
2018-06-06T00:54:01.714Z,91.70
2018-06-06T00:56:30.173Z,91.60
2018-06-06T00:58:58.505Z,91.80
2018-06-06T01:01:26.853Z,92.00
2018-06-06T01:03:55.164Z,92.10
2018-06-06T01:06:23.502Z,91.80
2018-06-06T01:08:51.825Z,92.00
2018-06-06T01:11:20.160Z,92.00
2018-06-06T01:13:48.484Z,92.00
2018-06-06T01:16:16.853Z,92.00
2018-06-06T01:18:45.186Z,92.00
2018-06-06T01:21:13.540Z,92.00
2018-06-06T01:23:42.144Z,92.00
2018-06-06T01:26:10.481Z,91.90
2018-06-06T01:28:38.865Z,92.10
2018-06-06T01:31:07.201Z,92.10
2018-06-06T01:33:35.615Z,92.20
2018-06-06T01:36:03.977Z,92.30
2018-06-06T01:38:32.312Z,92.50
2018-06-06T01:41:00.658Z,92.40
2018-06-06T01:43:28.992Z,92.50
2018-06-06T01:45:57.324Z,92.50
2018-06-06T01:48:25.636Z,92.50
2018-06-06T01:50:54.057Z,92.30
2018-06-06T01:53:22.376Z,92.10
2018-06-06T01:55:50.735Z,92.40
2018-06-06T01:58:19.049Z,92.30
2018-06-06T02:00:47.407Z,92.20
2018-06-06T02:03:15.736Z,92.00
2018-06-06T02:05:44.088Z,91.60
2018-06-06T02:08:12.783Z,91.60
2018-06-06T02:10:41.112Z,91.80
2018-06-06T02:13:09.457Z,91.50
2018-06-06T02:15:37.817Z,91.40
2018-06-06T02:18:06.154Z,91.40
2018-06-06T02:20:34.496Z,91.30
2018-06-06T02:23:03.108Z,91.40
2018-06-06T02:25:31.513Z,91.40
2018-06-06T02:27:59.839Z,91.30
2018-06-06T02:30:28.184Z,91.20
2018-06-06T02:32:56.519Z,91.30
2018-06-06T02:35:24.844Z,91.40
2018-06-06T02:37:53.180Z,91.40
2018-06-06T02:40:21.507Z,91.40
2018-06-06T02:42:49.872Z,91.30
2018-06-06T02:45:18.197Z,91.30
2018-06-06T02:47:46.537Z,91.20
2018-06-06T02:50:14.849Z,91.20
2018-06-06T02:52:43.189Z,91.20
2018-06-06T02:55:11.507Z,91.10
2018-06-06T02:57:39.853Z,91.20
2018-06-06T03:00:08.178Z,91.20
2018-06-06T03:02:36.522Z,91.10
2018-06-06T03:05:05.038Z,91.10
2018-06-06T03:07:33.381Z,90.90
2018-06-06T03:10:01.692Z,91.10
2018-06-06T03:12:30.036Z,91.30
2018-06-06T03:14:58.365Z,91.20
2018-06-06T03:17:26.722Z,91.20
2018-06-06T03:19:55.056Z,91.40
2018-06-06T03:22:23.391Z,91.20
2018-06-06T03:24:51.718Z,91.20
2018-06-06T03:27:20.074Z,91.10
2018-06-06T03:29:48.506Z,91.10
2018-06-06T03:32:16.853Z,90.90
2018-06-06T03:34:45.182Z,90.50
2018-06-06T03:37:13.538Z,90.70
2018-06-06T03:39:41.857Z,91.30
2018-06-06T03:42:10.210Z,91.20
2018-06-06T03:44:38.550Z,90.90
2018-06-06T03:47:06.885Z,91.10
2018-06-06T03:49:35.209Z,91.20
2018-06-06T03:52:03.568Z,91.00
2018-06-06T03:54:31.894Z,91.10
2018-06-06T03:57:00.245Z,91.00
2018-06-06T03:59:28.606Z,90.80
2018-06-06T04:01:56.943Z,90.70
2018-06-06T04:04:26.603Z,90.70
2018-06-06T04:06:54.958Z,90.70
2018-06-06T04:09:23.278Z,90.60
2018-06-06T04:11:51.618Z,90.30
2018-06-06T04:14:19.936Z,90.20
2018-06-06T04:16:48.277Z,90.30
2018-06-06T04:19:16.613Z,90.70
2018-06-06T04:21:44.933Z,90.80
2018-06-06T04:24:13.260Z,90.80
2018-06-06T04:26:41.560Z,91.00
2018-06-06T04:29:09.896Z,90.60
2018-06-06T04:31:38.240Z,90.50
2018-06-06T04:34:06.587Z,90.40
2018-06-06T04:36:34.901Z,90.40
2018-06-06T04:39:03.749Z,90.50
2018-06-06T04:41:32.066Z,90.40
2018-06-06T04:44:00.418Z,90.40
2018-06-06T04:46:28.749Z,90.00
2018-06-06T04:48:57.107Z,89.90
2018-06-06T04:51:25.444Z,89.20
2018-06-06T04:53:53.785Z,88.80
2018-06-06T04:56:22.101Z,88.60
2018-06-06T04:58:50.456Z,88.60
2018-06-06T05:01:18.778Z,88.50
2018-06-06T05:03:47.172Z,87.80
2018-06-06T05:06:15.500Z,87.10
2018-06-06T05:08:43.845Z,86.30
2018-06-06T05:11:12.169Z,85.70
2018-06-06T05:13:40.551Z,85.30
2018-06-06T05:16:08.864Z,84.50
2018-06-06T05:18:37.201Z,84.00
2018-06-06T05:21:05.537Z,83.10
2018-06-06T05:23:33.872Z,82.40
2018-06-06T05:26:02.195Z,81.40
2018-06-06T05:28:30.542Z,80.90
2018-06-06T05:30:58.864Z,80.30
2018-06-06T05:33:27.486Z,79.00
2018-06-06T05:35:55.875Z,78.60
2018-06-06T05:38:24.205Z,77.90
2018-06-06T05:40:52.513Z,77.40
2018-06-06T05:43:20.927Z,76.60
2018-06-06T05:45:49.704Z,75.90
2018-06-06T05:48:18.112Z,75.00
2018-06-06T05:50:46.480Z,74.90
2018-06-06T05:53:14.855Z,74.40
2018-06-06T05:55:43.182Z,73.80
2018-06-06T05:58:11.533Z,72.60
2018-06-06T06:00:39.840Z,71.80
2018-06-06T06:03:08.154Z,71.70
2018-06-06T06:05:36.577Z,71.60
2018-06-06T06:08:04.933Z,71.30
2018-06-06T06:10:33.273Z,70.90
2018-06-06T06:13:01.589Z,70.40
2018-06-06T06:15:29.938Z,70.30
2018-06-06T06:17:58.240Z,70.00
2018-06-06T06:20:26.577Z,69.90
2018-06-06T06:22:54.922Z,69.10
2018-06-06T06:25:23.258Z,68.70
2018-06-06T06:27:51.565Z,68.40
2018-06-06T06:30:19.898Z,68.00
2018-06-06T06:32:48.220Z,67.90
2018-06-06T06:35:16.557Z,68.40
2018-06-06T06:37:44.864Z,68.00
2018-06-06T06:40:13.198Z,67.90
2018-06-06T06:42:41.518Z,67.80
2018-06-06T06:45:09.861Z,67.80
2018-06-06T06:47:38.165Z,67.40
2018-06-06T06:50:06.521Z,67.00
2018-06-06T06:52:34.856Z,67.50
2018-06-06T06:55:03.206Z,67.40
2018-06-06T06:57:31.536Z,66.40
2018-06-06T06:59:59.877Z,66.60
2018-06-06T07:02:28.325Z,67.60
2018-06-06T07:05:00.281Z,65.50
2018-06-06T07:07:28.598Z,65.70
2018-06-06T07:09:56.953Z,65.70
2018-06-06T07:12:25.346Z,65.40
2018-06-06T07:14:53.706Z,65.70
2018-06-06T07:17:22.041Z,65.50
2018-06-06T07:19:50.368Z,65.20
2018-06-06T07:22:18.689Z,64.60
2018-06-06T07:24:47.017Z,64.50
2018-06-06T07:27:15.324Z,64.40
2018-06-06T07:29:43.666Z,62.80
2018-06-06T07:32:12.002Z,62.80
2018-06-06T07:34:40.346Z,63.30
2018-06-06T07:37:08.674Z,62.30
2018-06-06T07:39:37.016Z,62.10
2018-06-06T07:42:05.358Z,62.90
2018-06-06T07:44:33.708Z,61.40
2018-06-06T07:47:02.037Z,62.70
2018-06-06T07:49:30.340Z,62.10
2018-06-06T07:51:58.674Z,60.80
2018-06-06T07:54:26.984Z,61.00
2018-06-06T07:56:55.320Z,57.80
2018-06-06T07:59:23.657Z,58.00
2018-06-06T08:01:52.045Z,58.50
2018-06-06T08:04:20.362Z,58.10
2018-06-06T08:06:48.704Z,57.40
2018-06-06T08:09:17.022Z,57.80
2018-06-06T08:11:45.354Z,58.10
2018-06-06T08:14:13.665Z,58.40
2018-06-06T08:16:42.052Z,58.60
2018-06-06T08:19:10.377Z,58.10
2018-06-06T08:21:38.727Z,59.60
2018-06-06T08:24:07.065Z,58.10
2018-06-06T08:26:35.393Z,58.80
2018-06-06T08:29:03.741Z,59.20
2018-06-06T08:31:32.089Z,58.90
2018-06-06T08:34:00.411Z,57.30
2018-06-06T08:36:28.748Z,57.90
2018-06-06T08:38:57.092Z,58.60
2018-06-06T08:41:25.430Z,59.80
2018-06-06T08:43:53.885Z,59.10
2018-06-06T08:46:22.216Z,59.70
2018-06-06T08:48:50.538Z,58.50
2018-06-06T08:51:18.893Z,59.40
2018-06-06T08:53:47.206Z,59.30
2018-06-06T08:56:15.550Z,60.10
2018-06-06T08:58:43.857Z,59.00
2018-06-06T09:01:12.196Z,59.10
2018-06-06T09:03:40.505Z,58.00
2018-06-06T09:06:08.836Z,58.30
2018-06-06T09:08:37.160Z,59.10
2018-06-06T09:11:05.596Z,57.60
2018-06-06T09:13:33.910Z,57.40
2018-06-06T09:16:02.236Z,58.90
2018-06-06T09:18:30.563Z,58.10
2018-06-06T09:20:58.897Z,57.00
2018-06-06T09:23:27.218Z,57.40
2018-06-06T09:25:55.549Z,56.70
2018-06-06T09:28:23.942Z,57.40
2018-06-06T09:30:52.269Z,55.90
2018-06-06T09:33:20.605Z,54.50
2018-06-06T09:35:48.943Z,52.70
2018-06-06T09:38:17.275Z,53.70
2018-06-06T09:40:45.590Z,54.50
2018-06-06T09:43:13.948Z,54.40
2018-06-06T09:45:42.277Z,54.00
2018-06-06T09:48:10.649Z,53.80
2018-06-06T09:50:38.988Z,53.30
2018-06-06T09:53:07.330Z,54.20
2018-06-06T09:55:35.651Z,53.80
2018-06-06T09:58:03.999Z,54.60
2018-06-06T10:00:37.654Z,53.80
2018-06-06T10:03:05.997Z,54.00
2018-06-06T10:05:34.324Z,53.40
2018-06-06T10:08:02.777Z,53.90
2018-06-06T10:10:31.069Z,53.50
2018-06-06T10:12:59.404Z,54.60
2018-06-06T10:15:27.716Z,54.00
2018-06-06T10:17:56.032Z,53.60
2018-06-06T10:20:24.360Z,52.60
2018-06-06T10:22:52.774Z,52.70
2018-06-06T10:25:21.076Z,52.50
2018-06-06T10:27:49.433Z,53.10
2018-06-06T10:30:17.756Z,53.40
2018-06-06T10:32:46.098Z,52.90
2018-06-06T10:35:14.412Z,53.80
2018-06-06T10:37:42.744Z,51.70
2018-06-06T10:40:11.058Z,52.20
2018-06-06T10:42:39.392Z,52.90
2018-06-06T10:45:07.728Z,52.40
2018-06-06T10:47:36.077Z,53.30
2018-06-06T10:50:04.545Z,53.00
2018-06-06T10:52:32.879Z,51.80
2018-06-06T10:55:01.185Z,51.10
2018-06-06T10:57:29.536Z,51.90
2018-06-06T10:59:57.844Z,51.90
2018-06-06T11:02:26.204Z,51.60
2018-06-06T11:04:54.626Z,51.80
2018-06-06T11:07:22.975Z,52.00
2018-06-06T11:09:51.298Z,52.10
2018-06-06T11:12:26.117Z,47.90
2018-06-06T11:14:54.553Z,48.80
2018-06-06T11:17:22.896Z,47.40
2018-06-06T11:19:51.238Z,48.00
2018-06-06T11:22:19.581Z,48.00
2018-06-06T11:24:47.892Z,49.40
2018-06-06T11:27:16.218Z,49.60
2018-06-06T11:29:44.545Z,48.30
2018-06-06T11:32:12.906Z,48.10
2018-06-06T11:34:41.241Z,48.60
2018-06-06T11:37:09.553Z,47.40
2018-06-06T11:39:37.877Z,48.20
2018-06-06T11:42:06.190Z,47.30
2018-06-06T11:44:34.545Z,49.40
2018-06-06T11:47:02.934Z,48.90
2018-06-06T11:49:31.326Z,49.10
2018-06-06T11:51:59.632Z,47.20
2018-06-06T11:54:28.045Z,47.00
2018-06-06T11:56:56.365Z,48.00
2018-06-06T11:59:24.689Z,48.90
2018-06-06T12:01:53.137Z,46.00
2018-06-06T12:04:21.462Z,47.20
2018-06-06T12:06:49.861Z,46.70
2018-06-06T12:09:18.180Z,46.40
2018-06-06T12:11:46.481Z,46.20
2018-06-06T12:14:14.814Z,45.50
2018-06-06T12:16:43.155Z,45.40
2018-06-06T12:19:11.472Z,46.50
2018-06-06T12:21:39.782Z,46.10
2018-06-06T12:24:08.104Z,45.50
2018-06-06T12:26:36.420Z,46.30
2018-06-06T12:29:04.772Z,47.30
2018-06-06T12:31:33.097Z,48.20
2018-06-06T12:34:01.436Z,47.70
2018-06-06T12:36:29.920Z,46.30
2018-06-06T12:38:58.257Z,47.20
2018-06-06T12:41:26.571Z,47.20
2018-06-06T12:43:54.913Z,47.70
2018-06-06T12:46:23.457Z,46.90
2018-06-06T12:48:51.798Z,46.90
2018-06-06T12:51:20.105Z,46.80
2018-06-06T12:53:48.450Z,47.80
2018-06-06T12:56:17.089Z,47.40
2018-06-06T12:58:45.416Z,47.70
2018-06-06T13:01:13.734Z,45.80
2018-06-06T13:03:42.041Z,45.70
2018-06-06T13:06:10.361Z,45.70
2018-06-06T13:08:38.672Z,46.50
2018-06-06T13:11:07.004Z,46.80
2018-06-06T13:16:03.431Z,44.70
2018-06-06T13:18:31.744Z,45.00
2018-06-06T13:21:00.091Z,45.60
2018-06-06T13:23:28.411Z,45.90
2018-06-06T13:25:56.773Z,46.80
2018-06-06T13:28:25.078Z,45.40
2018-06-06T13:30:53.444Z,46.50
2018-06-06T13:33:21.763Z,46.30
2018-06-06T13:35:50.138Z,46.20
2018-06-06T13:38:18.445Z,46.30
2018-06-06T13:40:46.820Z,46.70
2018-06-06T13:43:15.166Z,44.80
2018-06-06T13:45:43.496Z,44.90
2018-06-06T13:48:11.821Z,45.60
2018-06-06T13:50:40.137Z,44.90
2018-06-06T13:53:08.446Z,45.30
2018-06-06T13:55:36.776Z,44.60
2018-06-06T13:58:05.092Z,44.70
2018-06-06T14:00:33.419Z,45.00
2018-06-06T14:03:01.766Z,45.00
2018-06-06T14:05:30.175Z,45.80
2018-06-06T14:07:58.498Z,44.60
2018-06-06T14:10:26.838Z,45.50
2018-06-06T14:12:55.162Z,44.40
2018-06-06T14:15:23.500Z,44.80
2018-06-06T14:17:51.824Z,45.00
2018-06-06T14:20:20.300Z,45.20
2018-06-06T14:22:48.626Z,45.40
2018-06-06T14:25:16.949Z,46.50
2018-06-06T14:27:45.278Z,46.50
2018-06-06T14:30:13.606Z,45.90
2018-06-06T14:32:41.935Z,45.80
2018-06-06T14:35:10.261Z,46.30
2018-06-06T14:37:38.601Z,46.30
2018-06-06T14:40:06.962Z,46.00
2018-06-06T14:42:35.344Z,46.20
2018-06-06T14:45:03.741Z,45.60
2018-06-06T14:47:32.169Z,46.10
2018-06-06T14:50:00.517Z,46.30
2018-06-06T14:52:28.860Z,46.10
2018-06-06T14:54:57.174Z,45.60
2018-06-06T14:57:25.526Z,45.30
2018-06-06T14:59:54.108Z,45.60
2018-06-06T15:02:22.500Z,46.00
2018-06-06T15:04:50.820Z,45.30
2018-06-06T15:07:19.255Z,45.50
2018-06-06T15:09:47.749Z,45.30
2018-06-06T15:12:16.085Z,45.90
2018-06-06T15:14:44.417Z,45.40
2018-06-06T15:17:12.761Z,46.60
2018-06-06T15:19:41.370Z,45.70
2018-06-06T15:22:09.721Z,45.30
2018-06-06T15:24:38.049Z,46.00
2018-06-06T15:27:06.409Z,46.10
2018-06-06T15:29:34.729Z,46.10
2018-06-06T15:32:03.066Z,46.00
2018-06-06T15:34:31.373Z,46.40
2018-06-06T15:36:59.729Z,46.80
2018-06-06T15:39:28.046Z,46.20
2018-06-06T15:41:56.393Z,46.20
2018-06-06T15:44:24.773Z,44.90
2018-06-06T15:46:53.157Z,44.70
2018-06-06T15:49:21.470Z,45.70
2018-06-06T15:51:49.820Z,45.40
2018-06-06T15:54:18.155Z,46.00
2018-06-06T15:56:46.486Z,46.60
2018-06-06T15:59:14.800Z,46.60
2018-06-06T16:01:43.129Z,46.30
2018-06-06T16:04:11.449Z,46.00
2018-06-06T16:06:39.790Z,46.20
2018-06-06T16:09:08.410Z,46.00
2018-06-06T16:11:36.747Z,46.30
2018-06-06T16:14:05.203Z,46.40
2018-06-06T16:16:33.550Z,45.90
2018-06-06T16:19:01.861Z,45.60
2018-06-06T16:21:30.168Z,46.70
2018-06-06T16:23:58.522Z,46.80
2018-06-06T16:26:26.829Z,46.50
2018-06-06T16:28:55.170Z,46.50
2018-06-06T16:31:23.513Z,46.20
2018-06-06T16:33:51.846Z,45.90
2018-06-06T16:36:20.152Z,46.30
2018-06-06T16:38:48.481Z,46.50
2018-06-06T16:41:16.920Z,46.40
2018-06-06T16:43:45.261Z,46.70
2018-06-06T16:46:13.678Z,46.60
2018-06-06T16:48:42.097Z,47.30
2018-06-06T16:51:10.726Z,47.50
2018-06-06T16:53:39.053Z,46.70
2018-06-06T16:56:07.450Z,46.30
2018-06-06T16:58:35.776Z,46.10
2018-06-06T17:01:04.365Z,45.70
2018-06-06T17:03:32.852Z,46.50
2018-06-06T17:06:01.213Z,45.90
2018-06-06T17:08:29.537Z,46.20
2018-06-06T17:10:57.968Z,46.40
2018-06-06T17:13:26.341Z,46.80
2018-06-06T17:15:54.644Z,47.40
2018-06-06T17:18:23.007Z,47.90
2018-06-06T17:20:51.332Z,49.50
2018-06-06T17:23:19.696Z,50.80
2018-06-06T17:25:48.017Z,51.00
2018-06-06T17:28:16.425Z,51.20
2018-06-06T17:30:44.762Z,50.90
2018-06-06T17:33:13.094Z,51.20
2018-06-06T17:35:41.438Z,51.60
2018-06-06T17:38:09.802Z,52.30
2018-06-06T17:40:38.130Z,52.60
2018-06-06T17:43:06.517Z,52.20
2018-06-06T17:45:34.872Z,52.60
2018-06-06T17:48:03.266Z,52.30
2018-06-06T17:50:31.637Z,53.90
2018-06-06T17:53:00.003Z,54.30
2018-06-06T17:55:28.405Z,55.20
2018-06-06T17:57:56.752Z,56.30
2018-06-06T18:00:25.072Z,57.00
2018-06-06T18:02:53.428Z,57.10
2018-06-06T18:05:21.767Z,57.90
2018-06-06T18:07:50.077Z,58.10
2018-06-06T18:10:18.532Z,57.60
2018-06-06T18:12:46.861Z,58.20
2018-06-06T18:15:15.242Z,58.80
2018-06-06T18:17:43.642Z,59.10
2018-06-06T18:20:11.955Z,59.20
2018-06-06T18:22:40.284Z,59.50
2018-06-06T18:25:08.625Z,59.60
2018-06-06T18:27:36.977Z,60.10
2018-06-06T18:30:05.505Z,60.20
2018-06-06T18:32:34.016Z,60.50
2018-06-06T18:35:02.354Z,60.80
2018-06-06T18:37:30.773Z,60.70
2018-06-06T18:39:59.109Z,61.30
2018-06-06T18:42:27.630Z,61.50
2018-06-06T18:44:56.037Z,61.80
2018-06-06T18:47:24.458Z,62.30
2018-06-06T18:49:52.803Z,62.40
2018-06-06T18:52:21.133Z,63.00
2018-06-06T18:54:49.477Z,63.10
2018-06-06T18:57:17.793Z,63.80
2018-06-06T18:59:46.163Z,63.80
2018-06-06T19:02:14.482Z,64.10
2018-06-06T19:04:42.813Z,64.00
2018-06-06T19:07:11.186Z,64.60
2018-06-06T19:09:39.527Z,64.30
2018-06-06T19:12:07.844Z,64.30
2018-06-06T19:14:36.182Z,64.10
2018-06-06T19:17:04.536Z,64.30
2018-06-06T19:19:33.017Z,64.70
2018-06-06T19:22:01.364Z,64.50
2018-06-06T19:24:29.745Z,64.50
2018-06-06T19:26:58.137Z,64.60
2018-06-06T19:29:26.562Z,64.70
2018-06-06T19:31:54.892Z,64.60
2018-06-06T19:34:23.390Z,64.40
2018-06-06T19:36:51.710Z,64.60
2018-06-06T19:39:20.075Z,64.70
2018-06-06T19:41:48.417Z,64.70
2018-06-06T19:44:16.821Z,65.10
2018-06-06T19:46:45.226Z,65.50
2018-06-06T19:49:13.582Z,65.50
2018-06-06T19:51:41.903Z,65.20
2018-06-06T19:54:10.284Z,65.20
2018-06-06T19:59:06.665Z,65.40
2018-06-06T20:01:35.001Z,65.90
2018-06-06T20:04:03.370Z,65.50
2018-06-06T20:06:31.703Z,65.30
2018-06-06T20:09:00.323Z,65.70
2018-06-06T20:11:28.705Z,65.80
2018-06-06T20:13:57.020Z,65.90
2018-06-06T20:16:25.393Z,65.80
2018-06-06T20:18:53.722Z,66.20
2018-06-06T20:21:22.052Z,66.30
2018-06-06T20:23:50.365Z,66.30
2018-06-06T20:26:18.817Z,66.30
2018-06-06T20:28:47.130Z,66.40
2018-06-06T20:31:15.497Z,66.70
2018-06-06T20:33:43.808Z,66.90
2018-06-06T20:36:12.140Z,67.40
2018-06-06T20:38:40.453Z,67.40
2018-06-06T20:41:09.244Z,67.40
2018-06-06T20:43:37.545Z,67.50
2018-06-06T20:46:05.877Z,67.80
2018-06-06T20:48:34.188Z,67.80
2018-06-06T20:51:02.528Z,67.60
2018-06-06T20:53:30.850Z,67.80
2018-06-06T20:58:27.384Z,68.10
2018-06-06T21:00:55.762Z,67.80
2018-06-06T21:03:24.090Z,68.00
2018-06-06T21:05:52.572Z,67.70
2018-06-06T21:08:20.877Z,67.80
2018-06-06T21:13:17.274Z,67.90
2018-06-06T21:15:45.608Z,67.80
2018-06-06T21:18:13.926Z,68.10
2018-06-06T21:20:42.269Z,68.40
2018-06-06T21:23:10.577Z,68.30
2018-06-06T21:25:38.901Z,68.20
2018-06-06T21:28:07.226Z,68.10
2018-06-06T21:30:35.624Z,68.30
2018-06-06T21:33:03.975Z,68.30
2018-06-06T21:35:32.284Z,68.60
2018-06-06T21:38:00.618Z,68.40
2018-06-06T21:40:28.963Z,68.50
2018-06-06T21:42:57.329Z,69.00
2018-06-06T21:45:25.661Z,69.50
2018-06-06T21:47:53.989Z,69.90
2018-06-06T21:50:22.337Z,70.10
2018-06-06T21:52:50.685Z,70.20
2018-06-06T21:55:19.051Z,70.30
2018-06-06T21:57:47.354Z,70.50
2018-06-06T22:00:15.672Z,70.40
2018-06-06T22:02:44.006Z,70.50
2018-06-06T22:05:12.317Z,70.70
2018-06-06T22:07:40.718Z,70.90
2018-06-06T22:10:09.039Z,71.20
2018-06-06T22:12:37.397Z,71.00
2018-06-06T22:15:05.756Z,71.00
2018-06-06T22:17:34.089Z,71.20
2018-06-06T22:20:02.417Z,71.20
2018-06-06T22:22:30.749Z,71.20
2018-06-06T22:24:59.057Z,71.30
2018-06-06T22:27:27.403Z,71.20
2018-06-06T22:29:55.745Z,71.00
2018-06-06T22:32:24.094Z,71.30
2018-06-06T22:34:52.404Z,71.50
2018-06-06T22:37:20.745Z,71.40
2018-06-06T22:39:49.054Z,71.30
2018-06-06T22:42:17.427Z,71.00
2018-06-06T22:44:45.768Z,70.90
2018-06-06T22:47:14.093Z,71.00
2018-06-06T22:52:10.459Z,70.70
2018-06-06T22:54:38.772Z,70.70
2018-06-06T22:57:07.126Z,70.80
2018-06-06T22:59:35.441Z,70.70
2018-06-06T23:02:03.805Z,70.60
2018-06-06T23:04:32.126Z,70.80
2018-06-06T23:07:00.456Z,70.60
2018-06-06T23:09:28.777Z,70.60
2018-06-06T23:11:57.127Z,70.70
2018-06-06T23:14:25.473Z,70.70
2018-06-06T23:16:53.781Z,70.70
2018-06-06T23:19:22.128Z,70.60
2018-06-06T23:21:50.437Z,71.30
2018-06-06T23:24:18.769Z,71.50
2018-06-06T23:26:47.093Z,71.30
2018-06-06T23:29:15.442Z,71.30
2018-06-06T23:31:43.761Z,71.50
2018-06-06T23:34:12.101Z,72.00
2018-06-06T23:36:41.235Z,71.90
2018-06-06T23:39:09.970Z,72.10
2018-06-06T23:41:38.293Z,71.90
2018-06-06T23:44:06.664Z,71.70
2018-06-06T23:46:34.969Z,71.70
2018-06-06T23:49:03.314Z,71.40
2018-06-06T23:51:31.717Z,71.40
2018-06-06T23:54:00.054Z,71.60
2018-06-06T23:56:28.369Z,71.80
2018-06-06T23:58:56.696Z,71.70
